Time;durP1;ratioP1;P1;durP2;ratioP2;P2;SDS_P1;SDS_P2;PMS_P1;PMS_P2;Temp;Humidity;BMP_temperature;BMP_pressure;BME280_temperature;BME280_humidity;BME280_pressure;Samples;Min_cycle;Max_cycle;Signal;HPM_P1;HPM_P2
2023/12/23 00:02:19;;;;;;;5.72;4.32;;;;;;;2.08;72.91;93326.06;5091295;28;20044;-70
2023/12/23 00:04:45;;;;;;;9.32;6.22;;;;;;;2.11;72.75;93367.66;5088160;28;20036;-70
2023/12/23 00:07:14;;;;;;;7.88;5.28;;;;;;;1.93;72.44;93364.69;5084584;28;20024;-70
2023/12/23 00:09:39;;;;;;;6.65;4.03;;;;;;;2.17;72.21;93374.06;5070232;28;20130;-70
2023/12/23 00:12:07;;;;;;;5.72;3.45;;;;;;;2.01;73.40;93364.94;5069673;28;20106;-70
2023/12/23 00:14:33;;;;;;;5.25;3.00;;;;;;;2.13;73.99;93358.09;5089137;28;20504;-70
2023/12/23 00:16:58;;;;;;;7.68;4.40;;;;;;;2.10;74.30;93344.72;5070035;28;20036;-70
2023/12/23 00:19:23;;;;;;;5.63;4.03;;;;;;;1.88;73.02;93315.53;5086425;28;20035;-70
2023/12/23 00:21:49;;;;;;;7.57;4.43;;;;;;;1.58;73.83;93269.91;5052773;28;20028;-70
2023/12/23 00:24:14;;;;;;;6.65;4.68;;;;;;;1.47;74.94;93301.41;5088946;28;20028;-70
2023/12/23 00:26:40;;;;;;;11.95;7.30;;;;;;;1.69;74.04;93298.13;5086353;28;20036;-70
2023/12/23 00:29:05;;;;;;;9.32;5.95;;;;;;;1.53;74.75;93282.22;5087598;28;20027;-70
2023/12/23 00:31:31;;;;;;;8.13;5.85;;;;;;;1.62;73.99;93298.69;5086675;28;20039;-70
2023/12/23 00:33:56;;;;;;;8.65;5.60;;;;;;;1.31;74.70;93321.34;5068778;28;20410;-70
2023/12/23 00:36:21;;;;;;;8.82;5.18;;;;;;;1.55;75.15;93334.94;5052370;28;20032;-70
2023/12/23 00:38:47;;;;;;;9.27;6.15;;;;;;;1.28;74.72;93319.81;5088925;28;20032;-70
2023/12/23 00:41:12;;;;;;;9.45;5.60;;;;;;;1.26;75.80;93352.38;5087105;28;20040;-70
2023/12/23 00:43:38;;;;;;;6.95;4.85;;;;;;;1.21;75.15;93320.34;5074026;28;20405;-70
2023/12/23 00:46:03;;;;;;;7.95;5.20;;;;;;;1.10;75.32;93314.25;5087008;28;20484;-70
2023/12/23 00:48:28;;;;;;;18.42;7.32;;;;;;;1.18;75.53;93349.53;5084728;28;20481;-70
2023/12/23 00:50:54;;;;;;;14.63;7.47;;;;;;;1.39;75.03;93328.47;5086847;28;20058;-70
2023/12/23 00:53:19;;;;;;;9.90;4.90;;;;;;;1.23;74.67;93290.38;5085127;28;20032;-69
2023/12/23 00:55:45;;;;;;;9.77;5.65;;;;;;;1.00;76.63;93328.56;5086029;28;20502;-69
2023/12/23 00:58:10;;;;;;;7.28;4.88;;;;;;;1.08;76.14;93326.31;5081075;28;20105;-70
2023/12/23 01:00:37;;;;;;;6.82;4.40;;;;;;;1.19;75.38;93325.56;5085897;28;20024;-70
2023/12/23 01:03:04;;;;;;;6.78;4.75;;;;;;;0.80;76.95;93299.28;5087629;28;20048;-70
2023/12/23 01:05:29;;;;;;;10.93;6.45;;;;;;;0.89;77.09;93308.03;5085549;28;20281;-69
2023/12/23 01:07:55;;;;;;;10.38;5.97;;;;;;;1.17;76.15;93324.88;5070009;28;20478;-70
2023/12/23 01:10:24;;;;;;;8.43;5.95;;;;;;;1.21;76.30;93336.50;5088524;28;20032;-69
2023/12/23 01:12:49;;;;;;;7.63;5.20;;;;;;;1.43;76.53;93329.91;5086826;28;20497;-70
2023/12/23 01:15:15;;;;;;;9.75;6.00;;;;;;;1.32;75.94;93307.63;5089186;28;20028;-70
2023/12/23 01:17:40;;;;;;;8.45;4.18;;;;;;;1.30;74.90;93315.41;5085612;28;20486;-70
2023/12/23 01:20:06;;;;;;;10.25;4.80;;;;;;;1.02;75.54;93301.16;5067171;28;20524;-70
2023/12/23 01:22:31;;;;;;;7.22;4.30;;;;;;;1.20;75.25;93277.78;5052186;28;20541;-70
2023/12/23 01:24:57;;;;;;;6.50;3.70;;;;;;;1.49;74.47;93288.50;5054942;28;20090;-69
2023/12/23 01:27:22;;;;;;;7.72;4.85;;;;;;;1.48;75.24;93289.44;5085198;28;20485;-70
2023/12/23 01:29:48;;;;;;;9.20;5.85;;;;;;;1.42;76.11;93277.91;5091982;28;20032;-70
2023/12/23 01:32:13;;;;;;;5.00;3.10;;;;;;;1.47;73.75;93229.75;5086310;28;20051;-69
2023/12/23 01:34:39;;;;;;;4.65;3.08;;;;;;;1.45;74.45;93246.13;5089670;28;20033;-70
2023/12/23 01:37:04;;;;;;;3.85;2.55;;;;;;;1.37;75.65;93251.00;5087399;28;20020;-70
2023/12/23 01:39:30;;;;;;;2.95;2.10;;;;;;;1.90;70.97;93231.72;5089989;28;20486;-70
2023/12/23 01:41:55;;;;;;;3.03;1.90;;;;;;;2.12;70.64;93212.22;5090555;28;20039;-70
2023/12/23 01:44:21;;;;;;;2.63;1.77;;;;;;;2.02;72.42;93209.50;5092093;28;20066;-70
2023/12/23 01:46:47;;;;;;;3.35;1.80;;;;;;;1.84;71.33;93151.97;5104472;28;20040;-70
2023/12/23 01:49:12;;;;;;;2.05;1.27;;;;;;;2.49;68.74;93160.69;5056677;28;20024;-70
2023/12/23 01:51:38;;;;;;;1.60;1.20;;;;;;;2.59;69.26;93230.81;5072134;28;20417;-70
2023/12/23 01:54:04;;;;;;;2.75;1.30;;;;;;;2.83;67.60;93228.13;5092316;28;20093;-70
2023/12/23 01:56:31;;;;;;;1.90;1.23;;;;;;;3.16;64.29;93169.97;5087512;28;20060;-70
2023/12/23 01:58:57;;;;;;;2.53;1.15;;;;;;;4.05;60.54;93211.53;5110166;27;20047;-70
2023/12/23 02:01:22;;;;;;;6.53;4.07;;;;;;;3.77;63.95;93260.03;5089527;28;20063;-70
2023/12/23 02:03:47;;;;;;;6.78;3.55;;;;;;;2.85;67.34;93198.84;5070942;28;20032;-70
2023/12/23 02:06:13;;;;;;;4.72;3.30;;;;;;;2.74;67.96;93221.16;5088986;28;20137;-70
2023/12/23 02:08:38;;;;;;;4.90;2.60;;;;;;;2.50;68.62;93190.53;5053585;28;20032;-70
2023/12/23 02:11:05;;;;;;;4.97;2.85;;;;;;;2.57;69.15;93207.88;5056023;28;20032;-70
2023/12/23 02:13:45;;;;;;;4.50;2.70;;;;;;;2.78;67.44;93196.88;5088723;28;20480;-70
2023/12/23 02:16:10;;;;;;;4.15;3.10;;;;;;;2.53;69.10;93180.84;5090482;28;20085;-70
2023/12/23 02:18:36;;;;;;;22.02;8.23;;;;;;;2.60;68.28;93204.25;5053731;28;20031;-70
2023/12/23 02:21:02;;;;;;;7.35;2.70;;;;;;;2.39;68.58;93169.09;5055706;28;20036;-70
2023/12/23 02:23:27;;;;;;;3.80;2.42;;;;;;;2.43;68.95;93219.19;5088475;28;20040;-70
2023/12/23 02:25:56;;;;;;;3.97;2.20;;;;;;;2.24;69.10;93213.84;5090028;28;20024;-70
2023/12/23 02:28:21;;;;;;;5.78;2.60;;;;;;;2.30;70.41;93225.38;5054556;28;20052;-71
2023/12/23 02:30:46;;;;;;;4.03;2.65;;;;;;;2.27;70.14;93235.84;5088894;28;20117;-70
2023/12/23 02:33:12;;;;;;;5.35;3.00;;;;;;;2.29;70.38;93239.94;5088659;28;20032;-70
2023/12/23 02:35:37;;;;;;;3.60;2.30;;;;;;;2.22;70.49;93224.19;5088919;28;20028;-70
2023/12/23 02:38:03;;;;;;;3.30;2.40;;;;;;;2.01;71.07;93192.53;5069696;28;20370;-70
2023/12/23 02:40:28;;;;;;;3.80;2.40;;;;;;;2.13;70.63;93206.94;5073047;28;20106;-70
2023/12/23 02:42:54;;;;;;;6.63;2.85;;;;;;;2.19;71.18;93205.66;5088429;28;20517;-70
2023/12/23 02:45:19;;;;;;;32.70;15.73;;;;;;;2.13;70.96;93185.66;5070518;28;20040;-70
2023/12/23 02:47:44;;;;;;;3.08;1.75;;;;;;;2.13;70.73;93149.78;5087832;28;20023;-70
2023/12/23 02:50:10;;;;;;;4.88;3.05;;;;;;;2.13;71.00;93153.16;5088918;28;20040;-70
2023/12/23 02:52:35;;;;;;;5.45;4.30;;;;;;;2.11;71.33;93151.63;5088155;28;20078;-70
2023/12/23 02:55:01;;;;;;;3.85;2.15;;;;;;;2.19;70.11;93175.72;5070911;28;20039;-70
2023/12/23 02:57:26;;;;;;;4.13;2.85;;;;;;;2.10;70.75;93186.69;5086675;28;20060;-70
2023/12/23 02:59:51;;;;;;;5.82;2.88;;;;;;;2.14;71.07;93157.34;5070837;28;20036;-69
2023/12/23 03:02:17;;;;;;;5.13;2.30;;;;;;;1.61;71.36;93075.16;5071813;28;20482;-70
2023/12/23 03:04:42;;;;;;;3.70;2.42;;;;;;;2.04;71.33;93161.53;5071784;28;20035;-70
2023/12/23 03:07:08;;;;;;;3.72;2.05;;;;;;;2.11;71.00;93172.13;5085121;28;20024;-70
2023/12/23 03:09:35;;;;;;;3.40;2.15;;;;;;;2.15;71.12;93164.09;5088261;28;20036;-70
2023/12/23 03:12:00;;;;;;;3.72;2.70;;;;;;;2.15;71.12;93194.84;5070871;28;20115;-70
2023/12/23 03:14:26;;;;;;;3.47;2.15;;;;;;;2.18;71.67;93193.81;5088842;28;20036;-70
2023/12/23 03:16:51;;;;;;;3.25;2.20;;;;;;;1.97;71.21;93158.63;5068515;28;20029;-70
2023/12/23 03:19:16;;;;;;;3.67;1.95;;;;;;;2.05;71.82;93224.66;5090262;28;20044;-70
2023/12/23 03:21:43;;;;;;;3.63;2.10;;;;;;;2.22;70.94;93238.75;5088707;28;20031;-70
2023/12/23 03:24:08;;;;;;;3.05;1.80;;;;;;;2.13;71.28;93198.47;5088842;28;20043;-70
2023/12/23 03:26:34;;;;;;;2.78;1.40;;;;;;;2.21;70.97;93183.31;5086317;28;20039;-70
2023/12/23 03:28:59;;;;;;;2.90;1.70;;;;;;;1.72;71.58;93146.84;5093401;28;20028;-70
2023/12/23 03:31:25;;;;;;;2.58;1.50;;;;;;;2.22;70.70;93210.56;5070887;28;20535;-70
2023/12/23 03:33:50;;;;;;;3.00;1.70;;;;;;;2.30;70.07;93171.56;5087687;28;20051;-70
2023/12/23 03:36:16;;;;;;;6.00;5.22;;;;;;;2.21;71.23;93226.88;5069112;28;20035;-70
2023/12/23 03:38:42;;;;;;;2.63;1.80;;;;;;;2.32;70.75;93164.56;5070528;28;20036;-70
2023/12/23 03:41:10;;;;;;;4.30;2.22;;;;;;;1.93;71.55;93172.59;5107420;27;20538;-70
2023/12/23 03:43:35;;;;;;;2.63;1.63;;;;;;;2.17;71.40;93207.53;5072059;28;22883;-70
2023/12/23 03:46:00;;;;;;;2.67;1.48;;;;;;;2.20;70.88;93172.25;5071849;28;20028;-70
2023/12/23 03:48:26;;;;;;;2.67;1.60;;;;;;;2.16;70.86;93172.59;5073976;28;20019;-70
2023/12/23 03:50:51;;;;;;;2.75;1.50;;;;;;;2.27;70.70;93184.59;5071402;28;20471;-70
2023/12/23 03:53:17;;;;;;;3.45;1.55;;;;;;;2.17;70.29;93125.53;5069448;28;20039;-70
2023/12/23 03:55:42;;;;;;;3.53;1.98;;;;;;;1.59;70.99;93081.31;5085034;28;20058;-70
2023/12/23 03:58:08;;;;;;;3.60;2.65;;;;;;;2.25;70.74;93166.75;5050319;28;20436;-70
2023/12/23 04:00:33;;;;;;;5.68;2.13;;;;;;;2.03;71.35;93162.47;5070824;28;20065;-70
2023/12/23 04:02:58;;;;;;;4.00;1.95;;;;;;;2.01;71.63;93161.78;5070829;28;20020;-70
2023/12/23 04:05:24;;;;;;;4.10;2.35;;;;;;;2.21;71.69;93147.44;5086751;28;20024;-70
2023/12/23 04:07:50;;;;;;;8.70;6.05;;;;;;;2.16;71.25;93142.66;5083766;28;20047;-70
2023/12/23 04:10:18;;;;;;;5.10;2.50;;;;;;;1.75;71.91;93115.06;5088198;28;20027;-70
2023/12/23 04:12:44;;;;;;;3.45;1.90;;;;;;;1.81;72.89;93154.75;5087873;28;20067;-70
2023/12/23 04:15:09;;;;;;;4.00;2.63;;;;;;;1.86;73.01;93129.63;5089923;28;20461;-70
2023/12/23 04:17:35;;;;;;;3.90;2.60;;;;;;;1.98;71.91;93144.09;5083946;28;20131;-70
2023/12/23 04:20:00;;;;;;;2.97;2.00;;;;;;;1.84;71.52;93134.03;5086291;28;20032;-70
2023/12/23 04:22:26;;;;;;;2.97;2.15;;;;;;;1.68;72.81;93163.38;5086683;28;20532;-70
2023/12/23 04:24:51;;;;;;;3.10;1.88;;;;;;;1.86;71.60;93143.25;5086242;28;20539;-70
2023/12/23 04:27:17;;;;;;;3.33;1.90;;;;;;;1.93;71.76;93174.34;5084058;28;20040;-70
2023/12/23 04:29:42;;;;;;;3.58;1.88;;;;;;;1.93;71.22;93158.97;5076123;28;20455;-70
2023/12/23 04:32:08;;;;;;;9.07;4.15;;;;;;;1.73;71.96;93171.53;5086657;28;20038;-70
2023/12/23 04:34:33;;;;;;;2.95;1.70;;;;;;;1.88;71.59;93161.06;5087331;28;20028;-70
2023/12/23 04:36:58;;;;;;;4.32;3.92;;;;;;;1.91;71.81;93158.28;5083427;28;20036;-70
2023/12/23 04:39:24;;;;;;;2.97;1.70;;;;;;;1.95;71.44;93144.28;5088920;28;20028;-70
2023/12/23 04:41:50;;;;;;;2.28;1.48;;;;;;;1.88;71.33;93136.25;5087034;28;20039;-69
2023/12/23 04:44:16;;;;;;;3.08;2.10;;;;;;;2.01;71.11;93123.34;5087794;28;20041;-70
2023/12/23 04:46:42;;;;;;;2.70;1.35;;;;;;;1.97;71.15;93124.50;5066446;28;20115;-70
2023/12/23 04:49:07;;;;;;;2.92;1.15;;;;;;;2.22;69.83;93108.88;5069509;28;20051;-70
2023/12/23 04:51:33;;;;;;;2.00;1.17;;;;;;;2.34;68.86;93117.38;5087052;28;20032;-69
2023/12/23 04:53:58;;;;;;;2.50;1.30;;;;;;;2.44;69.21;93141.34;5071997;28;20032;-70
2023/12/23 04:56:24;;;;;;;2.78;1.80;;;;;;;2.35;69.98;93128.44;5067428;28;20031;-68
2023/12/23 04:58:49;;;;;;;2.58;1.70;;;;;;;2.30;70.19;93168.97;5086841;28;20024;-70
2023/12/23 05:01:14;;;;;;;2.42;1.67;;;;;;;2.35;69.84;93177.13;5086988;28;20036;-69
2023/12/23 05:03:40;;;;;;;2.45;1.58;;;;;;;2.50;68.41;93147.75;5087432;28;20036;-70
2023/12/23 05:06:06;;;;;;;2.10;1.45;;;;;;;2.69;67.55;93175.34;5085830;28;20142;-69
2023/12/23 05:08:32;;;;;;;2.42;1.33;;;;;;;2.77;67.02;93151.66;5098590;28;20123;-70
2023/12/23 05:10:58;;;;;;;2.13;1.27;;;;;;;2.86;66.81;93225.31;5085436;28;20024;-70
2023/12/23 05:13:23;;;;;;;2.88;1.40;;;;;;;2.88;66.80;93231.16;5052809;28;20139;-70
2023/12/23 05:15:49;;;;;;;2.10;0.93;;;;;;;2.99;66.11;93250.84;5085424;28;20387;-70
2023/12/23 05:18:14;;;;;;;4.07;1.70;;;;;;;3.07;66.41;93263.88;5082639;28;20031;-70
2023/12/23 05:20:40;;;;;;;1.88;1.00;;;;;;;3.25;64.99;93210.28;5087328;28;20039;-70
2023/12/23 05:23:05;;;;;;;2.15;1.20;;;;;;;3.01;66.00;93239.53;5121146;27;21168;-70
2023/12/23 05:25:31;;;;;;;5.45;1.10;;;;;;;3.16;64.14;93182.78;5086090;28;20077;-70
2023/12/23 05:27:56;;;;;;;1.50;1.10;;;;;;;3.29;64.87;93237.34;5086452;28;20028;-70
2023/12/23 05:30:22;;;;;;;2.80;1.35;;;;;;;3.31;64.56;93212.34;5086826;28;20467;-70
2023/12/23 05:32:47;;;;;;;2.05;1.10;;;;;;;3.54;63.45;93241.34;5068734;28;20391;-70
2023/12/23 05:35:12;;;;;;;1.67;0.90;;;;;;;3.68;63.22;93211.97;5085492;28;20028;-70
2023/12/23 05:37:38;;;;;;;1.80;1.00;;;;;;;3.71;62.35;93215.09;5065705;28;20051;-70
2023/12/23 05:40:22;;;;;;;3.92;1.60;;;;;;;3.61;64.99;93268.16;5087744;28;20097;-70
2023/12/23 05:42:47;;;;;;;6.10;3.97;;;;;;;3.62;65.53;93222.72;5084496;28;20063;-70
2023/12/23 05:45:14;;;;;;;3.75;2.15;;;;;;;3.33;65.98;93262.63;5085521;28;20093;-70
2023/12/23 05:47:40;;;;;;;2.33;1.58;;;;;;;3.07;66.56;93176.66;5082718;28;20032;-70
2023/12/23 05:50:06;;;;;;;2.00;1.30;;;;;;;2.84;67.00;93156.19;5071359;28;20512;-71
2023/12/23 05:52:31;;;;;;;4.72;1.67;;;;;;;2.83;67.23;93218.66;5085034;28;20052;-70
2023/12/23 05:54:57;;;;;;;3.40;1.92;;;;;;;2.84;66.08;93201.53;5074446;28;20089;-70
2023/12/23 05:57:22;;;;;;;1.88;1.15;;;;;;;3.19;64.98;93203.88;5065358;28;20049;-70
2023/12/23 05:59:48;;;;;;;2.63;1.30;;;;;;;2.47;64.65;93094.97;5068918;28;20054;-70
2023/12/23 06:02:13;;;;;;;2.97;1.23;;;;;;;3.14;65.29;93223.97;5085442;28;20028;-70
2023/12/23 06:04:38;;;;;;;2.08;1.10;;;;;;;3.18;64.95;93229.69;5086530;28;20032;-69
2023/12/23 06:07:04;;;;;;;2.10;1.30;;;;;;;3.31;64.31;93225.19;5050491;28;20490;-70
2023/12/23 06:09:29;;;;;;;2.58;1.50;;;;;;;3.31;65.28;93245.72;5085232;28;20094;-69
2023/12/23 06:11:55;;;;;;;3.65;1.60;;;;;;;3.32;64.18;93244.81;5068020;28;20024;-68
2023/12/23 06:14:20;;;;;;;4.80;1.73;;;;;;;3.23;65.22;93274.59;5085390;28;20047;-68
2023/12/23 06:16:45;;;;;;;2.30;1.15;;;;;;;3.38;63.72;93217.84;5083512;28;20564;-70
2023/12/23 06:19:11;;;;;;;4.15;1.17;;;;;;;3.48;64.09;93232.38;5073550;28;20073;-70
2023/12/23 06:21:36;;;;;;;2.33;1.08;;;;;;;3.54;63.74;93261.88;5088731;28;20032;-70
2023/12/23 06:24:02;;;;;;;3.50;1.80;;;;;;;3.54;63.91;93228.50;5089666;28;20093;-68
2023/12/23 06:26:27;;;;;;;3.65;2.20;;;;;;;3.45;64.46;93247.19;5072807;28;20047;-68
2023/12/23 06:28:53;;;;;;;6.20;3.80;;;;;;;3.67;65.03;93279.69;5092670;28;20097;-68
2023/12/23 06:31:18;;;;;;;10.60;6.70;;;;;;;3.72;65.44;93273.22;5075640;28;20024;-68
2023/12/23 06:33:44;;;;;;;5.07;3.05;;;;;;;3.54;65.01;93208.78;5073709;28;20180;-68
2023/12/23 06:36:09;;;;;;;6.50;3.70;;;;;;;3.23;67.25;93281.44;5071593;28;20029;-68
2023/12/23 06:38:37;;;;;;;6.95;4.15;;;;;;;3.42;66.10;93237.97;5120036;27;20043;-70
2023/12/23 06:41:03;;;;;;;6.82;3.70;;;;;;;3.20;67.40;93248.31;5112081;28;20024;-68
2023/12/23 06:43:29;;;;;;;5.82;3.20;;;;;;;3.30;67.19;93244.91;5094760;28;20417;-68
2023/12/23 06:45:55;;;;;;;5.75;3.35;;;;;;;3.38;68.54;93220.41;5100483;27;20679;-68
2023/12/23 06:48:20;;;;;;;5.95;3.70;;;;;;;3.25;68.77;93174.34;5091232;28;20506;-68
2023/12/23 06:50:46;;;;;;;7.15;4.30;;;;;;;3.08;68.68;93188.53;5074737;28;20582;-68
2023/12/23 06:53:12;;;;;;;15.68;9.68;;;;;;;3.38;68.13;93246.88;5071833;28;20109;-68
2023/12/23 06:55:37;;;;;;;10.63;6.28;;;;;;;3.29;66.81;93250.19;5086882;28;20668;-67
2023/12/23 06:58:03;;;;;;;6.13;3.60;;;;;;;3.33;69.40;93267.78;5059187;28;20184;-68
2023/12/23 07:00:29;;;;;;;4.75;2.60;;;;;;;3.23;69.94;93254.06;5092905;28;20043;-68
2023/12/23 07:02:54;;;;;;;11.73;7.85;;;;;;;3.04;69.29;93262.38;5098828;28;20024;-67
2023/12/23 07:05:20;;;;;;;5.45;4.03;;;;;;;3.18;69.17;93255.34;5094271;28;20455;-68
2023/12/23 07:07:45;;;;;;;7.53;5.07;;;;;;;3.28;68.56;93269.06;5071739;28;20028;-68
2023/12/23 07:10:13;;;;;;;7.68;5.03;;;;;;;3.29;68.72;93253.56;5088120;28;20058;-68
2023/12/23 07:12:38;;;;;;;7.10;4.75;;;;;;;3.19;69.81;93287.75;5090734;28;20023;-68
2023/12/23 07:15:06;;;;;;;7.82;4.70;;;;;;;3.14;68.63;93254.75;5077705;28;20044;-68
2023/12/23 07:17:32;;;;;;;9.20;3.90;;;;;;;3.26;67.24;93301.72;5088620;28;20028;-68
2023/12/23 07:19:57;;;;;;;9.50;6.95;;;;;;;3.34;67.23;93294.25;5108044;27;20082;-68
2023/12/23 07:22:22;;;;;;;7.07;4.90;;;;;;;3.47;67.07;93296.69;5088969;28;20036;-68
2023/12/23 07:24:48;;;;;;;8.02;5.30;;;;;;;3.48;66.71;93278.59;5071874;28;20044;-68
2023/12/23 07:27:13;;;;;;;9.27;5.13;;;;;;;3.47;67.69;93292.34;5088642;28;20028;-68
2023/12/23 07:29:39;;;;;;;9.80;7.25;;;;;;;3.62;68.47;93279.22;5072960;28;20043;-68
2023/12/23 07:32:05;;;;;;;12.50;8.25;;;;;;;3.64;67.96;93291.00;5092323;28;20055;-68
2023/12/23 07:34:31;;;;;;;11.80;8.20;;;;;;;3.36;68.48;93271.84;5073683;28;20040;-68
2023/12/23 07:36:56;;;;;;;10.68;7.57;;;;;;;3.36;68.89;93302.66;5088397;28;20043;-68
2023/12/23 07:39:22;;;;;;;13.45;8.82;;;;;;;3.31;69.00;93287.59;5091112;28;20024;-68
2023/12/23 07:41:47;;;;;;;16.02;10.93;;;;;;;3.26;68.60;93274.34;5090561;28;20020;-68
2023/12/23 07:44:12;;;;;;;12.73;7.50;;;;;;;3.55;67.00;93313.09;5086790;28;20090;-68
2023/12/23 07:46:38;;;;;;;14.15;9.05;;;;;;;3.64;67.75;93323.59;5099558;28;20484;-68
2023/12/23 07:49:03;;;;;;;14.77;7.40;;;;;;;3.74;65.83;93322.75;5100386;28;20027;-68
2023/12/23 07:51:29;;;;;;;15.13;7.43;;;;;;;3.78;65.99;93331.00;5101142;28;20032;-68
2023/12/23 07:53:54;;;;;;;6.07;3.40;;;;;;;3.96;64.72;93293.56;5101632;28;20267;-68
2023/12/23 07:56:20;;;;;;;7.38;4.30;;;;;;;3.80;64.36;93239.22;5099393;28;20024;-69
2023/12/23 07:58:46;;;;;;;5.10;2.72;;;;;;;4.36;63.52;93330.63;5067001;28;20501;-69
2023/12/23 08:01:11;;;;;;;11.95;6.70;;;;;;;4.27;65.69;93316.78;5100687;28;20023;-69
2023/12/23 08:03:37;;;;;;;10.93;5.75;;;;;;;4.54;66.40;93348.84;5097782;28;20069;-69
2023/12/23 08:06:02;;;;;;;15.43;7.38;;;;;;;4.39;66.75;93350.94;5090881;28;20032;-69
2023/12/23 08:08:27;;;;;;;17.52;9.77;;;;;;;3.95;67.72;93352.78;5101337;28;20084;-69
2023/12/23 08:10:54;;;;;;;13.98;7.78;;;;;;;4.03;67.87;93361.50;5082807;28;20035;-69
2023/12/23 08:13:20;;;;;;;5.15;3.28;;;;;;;4.38;65.60;93365.56;5099367;28;20496;-68
2023/12/23 08:15:46;;;;;;;4.65;2.28;;;;;;;4.78;64.29;93358.88;5082287;28;20024;-69
2023/12/23 08:18:12;;;;;;;2.67;1.80;;;;;;;4.91;65.69;93373.19;5082046;28;20044;-70
2023/12/23 08:20:37;;;;;;;2.92;1.60;;;;;;;5.16;63.73;93355.69;5099966;28;20490;-70
2023/12/23 08:23:03;;;;;;;7.22;3.47;;;;;;;5.42;62.43;93365.50;5109755;28;20031;-69
2023/12/23 08:25:28;;;;;;;6.55;2.63;;;;;;;5.53;62.33;93375.72;5092779;28;20077;-70
2023/12/23 08:27:53;;;;;;;4.18;2.03;;;;;;;5.93;60.97;93390.28;5092409;28;20024;-69
2023/12/23 08:30:19;;;;;;;3.17;2.17;;;;;;;6.02;60.47;93389.53;5076765;28;20038;-69
2023/12/23 08:32:45;;;;;;;7.15;4.13;;;;;;;6.19;59.67;93390.66;5092549;28;20029;-69
2023/12/23 08:35:10;;;;;;;4.85;2.03;;;;;;;6.20;59.88;93377.59;5094638;28;20421;-70
2023/12/23 08:37:36;;;;;;;4.18;2.70;;;;;;;6.48;58.72;93393.19;5098205;28;20031;-71
2023/12/23 08:40:01;;;;;;;3.05;1.70;;;;;;;6.74;57.36;93410.69;5088076;28;20074;-70
2023/12/23 08:42:26;;;;;;;5.78;3.63;;;;;;;6.96;56.98;93431.03;5095741;28;20024;-70
2023/12/23 08:44:52;;;;;;;4.47;2.60;;;;;;;7.11;57.07;93439.19;5101232;28;20046;-71
2023/12/23 08:47:17;;;;;;;4.50;2.83;;;;;;;7.22;56.59;93472.59;5099247;28;20023;-72
2023/12/23 08:49:43;;;;;;;11.35;3.85;;;;;;;7.35;56.87;93461.94;5100738;28;20051;-72
2023/12/23 08:52:08;;;;;;;26.80;14.25;;;;;;;7.29;56.90;93465.09;5100452;28;20040;-72
2023/12/23 08:54:34;;;;;;;5.60;2.60;;;;;;;7.45;57.04;93488.56;5093157;28;20115;-73
2023/12/23 08:56:59;;;;;;;6.03;2.83;;;;;;;7.52;57.62;93492.25;5088567;28;20044;-71
2023/12/23 08:59:24;;;;;;;3.97;2.30;;;;;;;7.44;57.15;93499.88;5093014;28;20043;-70
2023/12/23 09:01:50;;;;;;;5.75;2.88;;;;;;;6.95;59.04;93512.03;5091152;28;20031;-69
2023/12/23 09:04:17;;;;;;;8.27;3.60;;;;;;;6.56;60.66;93524.94;5108670;28;20023;-69
2023/12/23 09:06:43;;;;;;;5.85;3.30;;;;;;;6.05;63.04;93549.13;5071630;28;20042;-70
2023/12/23 09:09:08;;;;;;;11.40;3.50;;;;;;;5.82;64.53;93575.03;5094969;28;20036;-73
2023/12/23 09:11:34;;;;;;;5.50;3.33;;;;;;;5.58;66.04;93584.81;5084967;28;20035;-72
2023/12/23 09:13:59;;;;;;;7.28;4.10;;;;;;;5.62;65.98;93588.75;5072593;28;20578;-69
2023/12/23 09:16:25;;;;;;;7.95;4.22;;;;;;;5.49;67.16;93572.66;5070885;28;20043;-70
2023/12/23 09:18:50;;;;;;;7.97;4.53;;;;;;;5.47;67.87;93572.81;5089563;28;20038;-71
2023/12/23 09:21:16;;;;;;;5.70;3.60;;;;;;;5.34;68.65;93577.34;5088709;28;20020;-71
2023/12/23 09:23:41;;;;;;;10.23;4.28;;;;;;;5.05;69.48;93553.97;5106475;28;20074;-71
2023/12/23 09:26:07;;;;;;;7.43;4.90;;;;;;;5.06;69.96;93571.84;5109254;28;20023;-69
2023/12/23 09:28:32;;;;;;;6.88;3.90;;;;;;;5.05;69.67;93582.28;5101768;28;20428;-72
2023/12/23 09:30:57;;;;;;;7.68;5.15;;;;;;;5.07;70.42;93582.97;5089405;28;20020;-72
2023/12/23 09:33:23;;;;;;;7.90;4.97;;;;;;;5.03;69.58;93604.75;5104802;28;20417;-72
2023/12/23 09:35:48;;;;;;;8.85;5.65;;;;;;;5.11;69.86;93615.25;5109535;28;20034;-68
2023/12/23 09:38:14;;;;;;;22.40;6.22;;;;;;;5.03;70.13;93609.91;5109899;28;20028;-72
2023/12/23 09:40:39;;;;;;;5.95;3.85;;;;;;;4.98;70.35;93617.16;5070349;28;20467;-72
2023/12/23 09:43:05;;;;;;;11.02;6.13;;;;;;;4.91;70.07;93612.50;5109760;28;20036;-72
2023/12/23 09:45:32;;;;;;;7.32;4.57;;;;;;;4.90;70.10;93610.06;5091120;28;20030;-74
2023/12/23 09:47:57;;;;;;;9.70;5.50;;;;;;;4.96;70.09;93642.19;5108699;28;20151;-72
2023/12/23 09:50:23;;;;;;;12.23;6.28;;;;;;;4.95;69.85;93646.53;5092742;28;20044;-71
2023/12/23 09:52:51;;;;;;;22.38;8.10;;;;;;;4.91;69.90;93682.00;5087572;28;20016;-72
2023/12/23 09:55:16;;;;;;;7.50;5.03;;;;;;;4.81;70.37;93711.16;5058300;28;20039;-73
2023/12/23 09:57:41;;;;;;;9.25;4.72;;;;;;;4.67;70.94;93699.34;5093127;28;20493;-73
2023/12/23 10:00:07;;;;;;;12.75;6.68;;;;;;;4.64;71.74;93699.59;5091891;28;20048;-73
2023/12/23 10:02:33;;;;;;;8.98;4.88;;;;;;;4.66;73.05;93720.88;5077418;28;20060;-73
2023/12/23 10:04:58;;;;;;;11.65;5.10;;;;;;;4.46;73.46;93728.38;5092914;28;20035;-72
2023/12/23 10:07:24;;;;;;;7.15;3.20;;;;;;;4.15;74.83;93734.16;5092761;28;20293;-73
2023/12/23 10:09:50;;;;;;;15.32;5.60;;;;;;;4.24;75.94;93746.34;5075493;28;20032;-74
2023/12/23 10:12:15;;;;;;;10.10;4.10;;;;;;;4.04;76.65;93747.84;5092647;28;20039;-72
2023/12/23 10:14:41;;;;;;;4.68;2.78;;;;;;;3.86;76.99;93752.56;5126533;27;20043;-72
2023/12/23 10:17:07;;;;;;;6.13;3.20;;;;;;;3.79;77.46;93748.81;5104036;28;20517;-74
2023/12/23 10:19:32;;;;;;;6.63;4.05;;;;;;;3.88;77.18;93744.75;5113412;28;20040;-74
2023/12/23 10:21:59;;;;;;;12.18;7.57;;;;;;;4.05;77.43;93782.88;5111450;28;20030;-76
2023/12/23 10:24:25;;;;;;;8.48;4.47;;;;;;;3.70;77.92;93770.03;5086854;28;20048;-76
2023/12/23 10:26:50;;;;;;;5.63;3.30;;;;;;;3.77;77.28;93799.50;5108622;28;20039;-79
2023/12/23 10:29:16;;;;;;;7.55;2.85;;;;;;;3.56;77.57;93804.41;5095824;28;20031;-74
2023/12/23 10:31:41;;;;;;;15.05;7.43;;;;;;;3.62;77.61;93818.56;5084022;28;20539;-74
2023/12/23 10:34:10;;;;;;;7.00;4.50;;;;;;;3.61;77.00;93802.34;5075097;28;20040;-75
2023/12/23 10:36:37;;;;;;;50.15;20.63;;;;;;;3.70;77.03;93827.34;5092626;28;20024;-73
2023/12/23 10:39:02;;;;;;;27.52;10.75;;;;;;;3.62;77.48;93814.22;5074669;28;20044;-74
2023/12/23 10:41:51;;;;;;;6.18;3.20;;;;;;;3.78;77.02;93811.41;5077815;28;20030;-74
2023/12/23 10:44:16;;;;;;;6.78;3.55;;;;;;;3.63;77.27;93815.88;5104213;28;20039;-72
2023/12/23 10:46:42;;;;;;;8.13;3.63;;;;;;;3.70;77.55;93821.41;5109400;28;20473;-72
2023/12/23 10:49:07;;;;;;;9.10;5.88;;;;;;;3.72;77.60;93830.63;5105055;28;20036;-72
2023/12/23 10:51:33;;;;;;;9.88;6.47;;;;;;;3.89;77.91;93842.28;5094898;28;20027;-69
2023/12/23 10:53:58;;;;;;;7.85;5.65;;;;;;;3.77;77.43;93831.13;5107223;28;20028;-75
2023/12/23 10:56:23;;;;;;;5.97;3.72;;;;;;;3.74;77.30;93843.38;5090692;28;20028;-71
2023/12/23 10:58:49;;;;;;;5.45;3.33;;;;;;;3.76;76.90;93841.50;5109011;28;20509;-74
2023/12/23 11:01:14;;;;;;;2.17;1.35;;;;;;;3.62;76.66;93828.81;5072794;28;20035;-71
2023/12/23 11:03:40;;;;;;;3.63;2.22;;;;;;;3.63;76.41;93815.88;5100431;28;20050;-74
2023/12/23 11:06:05;;;;;;;3.53;2.25;;;;;;;3.76;76.46;93833.78;5091885;28;20032;-73
2023/12/23 11:08:31;;;;;;;6.03;4.40;;;;;;;3.87;76.62;93822.75;5092053;28;20074;-73
2023/12/23 11:10:57;;;;;;;4.57;3.50;;;;;;;3.83;76.75;93814.44;5091403;28;20024;-74
2023/12/23 11:13:23;;;;;;;7.72;4.30;;;;;;;4.07;75.67;93818.72;5091720;28;20520;-73
2023/12/23 11:15:48;;;;;;;7.47;4.03;;;;;;;4.09;75.36;93809.97;5092453;28;20032;-72
2023/12/23 11:18:14;;;;;;;7.88;4.32;;;;;;;4.08;75.68;93797.25;5074619;28;20028;-72
2023/12/23 11:20:44;;;;;;;13.07;7.53;;;;;;;4.12;75.14;93801.22;5139610;27;20032;-73
2023/12/23 11:23:42;;;;;;;14.73;7.13;;;;;;;4.14;75.81;93809.66;5077255;28;20040;-73
2023/12/23 11:26:42;;;;;;;10.73;5.85;;;;;;;4.32;74.76;93800.59;5072790;28;20071;-73
2023/12/23 11:29:08;;;;;;;7.65;4.57;;;;;;;4.32;74.36;93795.44;5101072;28;20035;-72
2023/12/23 11:31:34;;;;;;;8.93;5.57;;;;;;;4.47;74.50;93796.84;5095026;28;20085;-72
2023/12/23 11:33:59;;;;;;;7.68;5.40;;;;;;;4.45;74.31;93803.84;5103768;28;20039;-73
2023/12/23 11:36:25;;;;;;;7.57;4.30;;;;;;;4.09;74.37;93770.59;5111590;28;20076;-71